AirNav   Air Wisconsin Up To $57,000 Bonus
 
 971 users online  

32AZ Honor Health Thompson Peak Heliport
Scottsdale, Arizona, USA

GOING TO SCOTTSDALE?


FAA INFORMATION EFFECTIVE 08 SEPTEMBER 2022

Location

FAA Identifier: 32AZ
Lat/Long: 33-40-12.0000N 111-55-20.0000W
33-40.200000N 111-55.333333W
33.6700000,-111.9222222
(estimated)
Elevation: 1675 ft. / 511 m (estimated)
From city: 12 miles N of SCOTTSDALE, AZ
Time zone: UTC -7 (year round; does not observe DST)
Zip code: 85054

Heliport Operations

Heliport use: Private use, MEDICAL USE.
Activation date: 11/2007
Control tower: no
ARTCC: ALBUQUERQUE CENTER
FSS: PRESCOTT FLIGHT SERVICE STATION
Attendance: CONTINUOUS
Wind indicator: yes
Segmented circle: no
Lights: PERIMETER LGTS PILOT CONTROLLED 5-CLICKS ON 123.05.

Heliport Communications

WX ASOS at SDL (2.9 nm S): PHONE 480-483-3049
WX ASOS at DVT (8 nm W): 126.5 (623-587-7764)
WX AWOS-1 at 18AZ (9 nm N): 125.625 (480-488-7882)
WX ASOS at PHX (15 nm S): PHONE 602-231-8557
WX ASOS at FFZ (16 nm SE): PHONE 480-641-4111

Nearby radio navigation aids

VOR radial/distance  VOR name  Freq  Var
PXRr358/14.4PHOENIX VORTAC115.6012E
IWAr315/25.8WILLIE VORTAC113.3013E

Heliport Services

Runway Information

Helipad H1

Dimensions: 40 x 40 ft. / 12 x 12 m
FATO DIMENSIONS 64 FT X 64 FT.
Surface: concrete
Runway edge lights: PERI
Latitude: 33-40.200000N
Longitude: 111-55.333333W
Elevation: 1675.0 ft.
Traffic pattern: leftleft
Markings: , in good condition

Heliport Ownership and Management from official FAA records

Ownership: Privately-owned
Owner: SCOTTSDALE HEALTHCARE
7400 E THOMPSON PEAK PKWY
SCOTTSDALE, AZ 85255
Phone 480-583-4327
Manager: TODD LARSON
7301 E. 4TH ST., SUITE 1
SCOTTSDALE, AZ 85251
Phone 480-583-0213

Additional Remarks

A50-H1 HELIPORT
FOR CD CTC PHOENIX APCH AT 602-306-2565.

Instrument Procedures

There are no published instrument procedures at 32AZ.

Some nearby airports with instrument procedures:

KSDL - Scottsdale Airport (3 nm S)
KDVT - Phoenix Deer Valley Airport (8 nm W)
KPHX - Phoenix Sky Harbor International Airport (15 nm S)
KFFZ - Falcon Field Airport (16 nm SE)
KGEU - Glendale Municipal Airport (21 nm SW)
 
Loc | Ops | Rwys | IFR | FBO | Links
Com | Nav | Svcs | Stats | Notes
Aerial photo
No photo
 
Sectional chart

 
Airport distance calculator
Flying to Honor Health Thompson Peak Heliport? Find the distance to fly.

From to 32AZ

Sunrise and sunset
Times for 02-Oct-2022
 Local
(UTC-7)
 Zulu
(UTC)
Morning civil twilight05:5912:59
Sunrise06:2413:24
Sunset18:1001:10
Evening civil twilight18:3501:35

Current date and time
Zulu (UTC)  02-Oct-2022 19:44:19
Local (UTC-7)  02-Oct-2022 12:44:19
 
METAR
KSDL 
3nm S 
021853Z VRB06KT 10SM CLR 32/13 A2994 RMK AO2 SLP111 T03170128
KDVT 
7nm W 
021853Z 20008G16KT 10SM CLR 32/13 A2993 RMK AO2 SLP109 T03220128
KPHX 
16nm SW 
021851Z 12006KT 10SM FEW100 FEW250 33/13 A2990 RMK AO2 SLP104 TCU DSNT NW T03280133 $
KFFZ 
16nm SE 
021854Z VRB04KT 10SM CLR 32/14 A2992 RMK AO2 SLP106 T03170139
TAF
KSDL 
3nm S 
021720Z 0218/0318 VRB04KT P6SM FEW100 FEW150 FM022100 21007KT P6SM FEW100 FEW150 FM030300 04005KT P6SM FEW100 SCT150 SCT250 FM030800 VRB03KT P6SM FEW100 FEW150
KDVT 
7nm W 
021720Z 0218/0318 18008KT P6SM FEW100 FEW150 FM022200 23009KT P6SM FEW100 FEW150 FM030400 03008KT P6SM FEW100 SCT150 SCT250 FM030900 VRB04KT P6SM FEW100 FEW150
KPHX 
16nm SW 
021720Z 0218/0324 16007KT P6SM FEW100 FEW150 FM022200 21007KT P6SM FEW100 FEW150 FM030000 25006KT P6SM FEW100 FEW150 FM030400 10005KT P6SM FEW100 SCT150 SCT250 FM031700 14008KT P6SM FEW100 FEW150 FM032100 28008KT P6SM FEW100 FEW150
NOTAMs
Click for the latest NOTAMs
NOTAMs are issued by the DoD/FAA and will open in a separate window not controlled by AirNav.

 

 
 

Would you like to see your business listed on this page?

 If your business provides an interesting product or service to pilots, flight crews, aircraft, or users of the Honor Health Thompson Peak Heliport, you should consider listing it here.  To start the listing process, click on the button below
 
Add a business
 

Other Pages about Honor Health Thompson Peak Heliport

Update a link
 
Copyright © AirNav, LLC. All rights reserved. Privacy Policy  Contact